createdAt,value
2023-03-17T00:01:36.546Z,51.42
2023-03-17T00:04:03.392Z,51.54
2023-03-17T00:06:32.056Z,51.70
2023-03-17T00:08:58.891Z,51.49
2023-03-17T00:11:27.986Z,51.68
2023-03-17T00:13:54.829Z,51.59
2023-03-17T00:16:29.556Z,51.58
2023-03-17T00:18:57.706Z,51.66
2023-03-17T00:21:31.268Z,51.53
2023-03-17T00:23:58.945Z,51.55
2023-03-17T00:26:26.796Z,51.73
2023-03-17T00:28:54.822Z,51.79
2023-03-17T00:31:24.678Z,51.60
2023-03-17T00:33:54.109Z,51.79
2023-03-17T00:36:28.182Z,51.65
2023-03-17T00:38:55.765Z,51.89
2023-03-17T00:41:22.789Z,52.02
2023-03-17T00:43:50.834Z,51.93
2023-03-17T00:46:28.969Z,52.14
2023-03-17T00:48:55.848Z,52.04
2023-03-17T00:51:23.547Z,51.99
2023-03-17T00:53:50.377Z,52.06
2023-03-17T00:56:20.803Z,51.97
2023-03-17T00:58:48.761Z,51.90
2023-03-17T01:01:16.045Z,51.95
2023-03-17T01:03:43.104Z,51.97
2023-03-17T01:06:13.134Z,52.22
2023-03-17T01:08:41.459Z,52.19
2023-03-17T01:11:19.294Z,52.04
2023-03-17T01:13:46.856Z,52.16
2023-03-17T01:16:14.420Z,52.26
2023-03-17T01:18:41.483Z,52.17
2023-03-17T01:21:08.727Z,52.25
2023-03-17T01:23:35.759Z,52.12
2023-03-17T01:26:02.568Z,52.20
2023-03-17T01:28:29.610Z,52.19
2023-03-17T01:30:56.861Z,52.05
2023-03-17T01:33:23.707Z,51.95
2023-03-17T01:35:51.007Z,52.03
2023-03-17T01:38:18.952Z,52.10
2023-03-17T01:40:49.769Z,51.89
2023-03-17T01:43:29.507Z,51.94
2023-03-17T01:46:30.485Z,52.00
2023-03-17T01:49:09.497Z,51.93
2023-03-17T01:51:51.535Z,51.72
2023-03-17T01:54:42.691Z,51.72
2023-03-17T01:57:17.188Z,51.66
2023-03-17T01:59:50.865Z,51.70
2023-03-17T02:02:24.652Z,51.73
2023-03-17T02:04:52.498Z,51.65
2023-03-17T02:07:20.752Z,51.66
2023-03-17T02:09:47.931Z,51.50
2023-03-17T02:12:15.298Z,51.66
2023-03-17T02:14:42.272Z,51.62
2023-03-17T02:17:10.003Z,51.68
2023-03-17T02:19:36.800Z,51.59
2023-03-17T02:22:03.718Z,51.62
2023-03-17T02:24:43.533Z,51.62
2023-03-17T02:27:39.308Z,51.57
2023-03-17T02:30:09.932Z,51.55
2023-03-17T02:32:37.808Z,51.70
2023-03-17T02:35:07.191Z,51.69
2023-03-17T02:37:34.751Z,51.64
2023-03-17T02:40:02.717Z,51.71
2023-03-17T02:42:29.460Z,51.61
2023-03-17T02:44:56.214Z,51.52
2023-03-17T02:47:23.024Z,51.53
2023-03-17T02:49:50.653Z,51.43
2023-03-17T02:52:17.504Z,51.53
2023-03-17T02:54:44.317Z,51.36
2023-03-17T02:57:11.244Z,51.56
2023-03-17T02:59:38.190Z,51.59
2023-03-17T03:02:04.965Z,51.62
2023-03-17T03:04:32.731Z,51.55
2023-03-17T03:06:59.691Z,51.52
2023-03-17T03:09:26.529Z,51.65
2023-03-17T03:11:53.339Z,51.48
2023-03-17T03:14:20.115Z,51.55
2023-03-17T03:16:47.509Z,51.60
2023-03-17T03:19:14.453Z,51.57
2023-03-17T03:21:41.518Z,51.56
2023-03-17T03:24:09.363Z,51.54
2023-03-17T03:26:36.225Z,51.68
2023-03-17T03:29:04.560Z,51.75
2023-03-17T03:31:31.666Z,51.62
2023-03-17T03:33:58.560Z,51.48
2023-03-17T03:36:26.888Z,51.66
2023-03-17T03:38:54.053Z,51.71
2023-03-17T03:41:21.363Z,51.54
2023-03-17T03:43:48.124Z,51.72
2023-03-17T03:46:15.855Z,51.76
2023-03-17T03:48:42.668Z,51.80
2023-03-17T03:51:09.471Z,51.76
2023-03-17T03:53:36.517Z,51.88
2023-03-17T03:56:03.362Z,51.95
2023-03-17T03:58:30.329Z,52.04
2023-03-17T04:00:57.125Z,51.92
2023-03-17T04:03:23.971Z,51.90
2023-03-17T04:05:50.730Z,51.82
2023-03-17T04:08:17.474Z,51.72
2023-03-17T04:10:44.652Z,51.67
2023-03-17T04:13:11.390Z,51.86
2023-03-17T04:15:38.184Z,51.84
2023-03-17T04:18:05.394Z,51.92
2023-03-17T04:20:32.787Z,52.10
2023-03-17T04:23:00.042Z,52.03
2023-03-17T04:25:27.061Z,52.15
2023-03-17T04:27:53.907Z,52.38
2023-03-17T04:30:20.688Z,52.23
2023-03-17T04:32:47.681Z,52.11
2023-03-17T04:35:17.248Z,52.09
2023-03-17T04:37:44.688Z,52.27
2023-03-17T04:40:13.381Z,52.16
2023-03-17T04:42:40.775Z,52.15
2023-03-17T04:45:11.327Z,52.27
2023-03-17T04:47:38.417Z,52.33
2023-03-17T04:50:05.915Z,52.33
2023-03-17T04:52:32.663Z,52.32
2023-03-17T04:54:59.548Z,52.42
2023-03-17T04:57:26.285Z,52.42
2023-03-17T04:59:53.088Z,52.18
2023-03-17T05:02:19.978Z,52.23
2023-03-17T05:04:47.821Z,52.28
2023-03-17T05:07:14.816Z,52.20
2023-03-17T05:09:42.073Z,52.12
2023-03-17T05:12:10.018Z,52.17
2023-03-17T05:14:37.590Z,52.13
2023-03-17T05:17:04.684Z,52.16
2023-03-17T05:19:31.479Z,52.19
2023-03-17T05:21:58.299Z,52.17
2023-03-17T05:24:25.364Z,52.04
2023-03-17T05:26:52.141Z,52.03
2023-03-17T05:29:18.977Z,52.13
2023-03-17T05:31:46.127Z,52.15
2023-03-17T05:34:13.114Z,52.05
2023-03-17T05:36:40.033Z,52.00
2023-03-17T05:39:07.489Z,51.93
2023-03-17T05:41:34.262Z,51.97
2023-03-17T05:44:01.592Z,52.03
2023-03-17T05:46:28.420Z,52.01
2023-03-17T05:48:55.200Z,51.96
2023-03-17T05:51:22.898Z,51.90
2023-03-17T05:53:49.851Z,51.82
2023-03-17T05:56:16.678Z,51.72
2023-03-17T05:58:43.502Z,51.96
2023-03-17T06:01:10.350Z,51.90
2023-03-17T06:03:38.767Z,51.79
2023-03-17T06:06:06.398Z,51.70
2023-03-17T06:08:33.182Z,51.57
2023-03-17T06:10:59.977Z,51.76
2023-03-17T06:13:27.222Z,51.92
2023-03-17T06:15:53.975Z,51.93
2023-03-17T06:18:20.914Z,51.75
2023-03-17T06:20:47.796Z,51.60
2023-03-17T06:23:14.678Z,51.74
2023-03-17T06:25:41.686Z,51.94
2023-03-17T06:28:08.721Z,51.77
2023-03-17T06:30:38.714Z,51.81
2023-03-17T06:33:07.013Z,51.71
2023-03-17T06:35:34.430Z,51.59
2023-03-17T06:38:02.315Z,51.55
2023-03-17T06:40:29.511Z,51.50
2023-03-17T06:42:56.628Z,51.42
2023-03-17T06:45:23.580Z,51.37
2023-03-17T06:47:50.692Z,51.33
2023-03-17T06:50:17.938Z,51.25
2023-03-17T06:52:46.716Z,51.19
2023-03-17T06:55:13.880Z,51.07
2023-03-17T06:57:41.054Z,51.08
2023-03-17T07:00:08.690Z,51.06
2023-03-17T07:02:35.469Z,51.08
2023-03-17T07:05:04.639Z,51.07
2023-03-17T07:07:31.702Z,51.11
2023-03-17T07:09:58.580Z,51.13
2023-03-17T07:12:26.116Z,51.12
2023-03-17T07:14:53.460Z,51.07
2023-03-17T07:17:20.402Z,51.10
2023-03-17T07:19:47.197Z,51.15
2023-03-17T07:22:14.069Z,51.14
2023-03-17T07:24:43.272Z,51.17
2023-03-17T07:27:10.441Z,51.20
2023-03-17T07:29:37.534Z,51.20
2023-03-17T07:32:07.224Z,51.15
2023-03-17T07:34:34.801Z,51.16
2023-03-17T07:37:02.611Z,51.14
2023-03-17T07:39:29.681Z,51.13
2023-03-17T07:41:56.426Z,51.09
2023-03-17T07:44:24.108Z,51.00
2023-03-17T07:46:52.181Z,50.96
2023-03-17T07:49:30.760Z,50.85
2023-03-17T07:52:08.459Z,50.77
2023-03-17T07:54:36.311Z,50.72
2023-03-17T07:57:03.971Z,50.67
2023-03-17T07:59:31.730Z,50.63
2023-03-17T08:02:00.325Z,50.61
2023-03-17T08:04:27.870Z,50.60
2023-03-17T08:06:54.832Z,50.49
2023-03-17T08:09:24.626Z,50.37
2023-03-17T08:11:51.691Z,50.38
2023-03-17T08:14:18.528Z,50.31
2023-03-17T08:16:45.424Z,50.32
2023-03-17T08:19:12.335Z,50.23
2023-03-17T08:21:39.265Z,50.18
2023-03-17T08:24:06.653Z,49.99
2023-03-17T08:26:34.025Z,49.83
2023-03-17T08:29:01.506Z,49.77
2023-03-17T08:31:28.717Z,49.68
2023-03-17T08:33:57.231Z,49.45
2023-03-17T08:36:26.161Z,49.39
2023-03-17T08:38:53.720Z,49.22
2023-03-17T08:41:23.827Z,49.03
2023-03-17T08:43:51.769Z,48.78
2023-03-17T08:46:28.113Z,48.61
2023-03-17T08:48:56.867Z,48.38
2023-03-17T08:51:26.842Z,48.08
2023-03-17T08:53:55.030Z,47.83
2023-03-17T08:56:22.776Z,47.75
2023-03-17T08:58:50.917Z,47.48
2023-03-17T09:01:20.905Z,47.30
2023-03-17T09:03:48.409Z,47.12
2023-03-17T09:06:15.702Z,46.90
2023-03-17T09:08:47.624Z,46.68
2023-03-17T09:11:17.218Z,46.55
2023-03-17T09:13:46.490Z,46.39
2023-03-17T09:16:14.844Z,46.32
2023-03-17T09:18:42.621Z,46.21
2023-03-17T09:21:11.802Z,46.05
2023-03-17T09:23:38.568Z,45.89
2023-03-17T09:26:05.546Z,45.65
2023-03-17T09:28:32.929Z,45.52
2023-03-17T09:31:01.559Z,45.15
2023-03-17T09:33:29.245Z,45.20
2023-03-17T09:35:57.282Z,45.04
2023-03-17T09:38:26.516Z,45.10
2023-03-17T09:41:20.083Z,45.04
2023-03-17T09:44:11.226Z,44.96
2023-03-17T09:47:15.233Z,44.61
2023-03-17T09:49:49.507Z,44.45
2023-03-17T09:52:18.993Z,44.23
2023-03-17T09:54:49.576Z,44.06
2023-03-17T09:57:32.410Z,43.91
2023-03-17T10:00:06.653Z,43.56
2023-03-17T10:02:37.914Z,43.62
2023-03-17T10:05:14.181Z,43.53
2023-03-17T10:08:02.599Z,43.40
2023-03-17T10:11:03.635Z,43.19
2023-03-17T10:13:48.979Z,42.89
2023-03-17T10:16:22.112Z,42.74
2023-03-17T10:19:17.584Z,42.59
2023-03-17T10:21:53.467Z,42.34
2023-03-17T10:24:22.078Z,42.24
2023-03-17T10:26:57.485Z,42.01
2023-03-17T10:29:24.445Z,41.99
2023-03-17T10:31:54.220Z,41.88
2023-03-17T10:34:29.691Z,41.93
2023-03-17T10:37:15.281Z,41.85
2023-03-17T10:39:47.682Z,41.46
2023-03-17T10:42:26.027Z,41.45
2023-03-17T10:45:07.484Z,41.42
2023-03-17T10:47:40.475Z,41.29
2023-03-17T10:50:21.753Z,41.23
2023-03-17T10:52:54.344Z,40.90
2023-03-17T10:55:23.321Z,40.89
2023-03-17T10:58:02.099Z,40.85
2023-03-17T11:00:35.278Z,40.90
2023-03-17T11:03:18.849Z,40.61
2023-03-17T11:06:17.020Z,40.50
2023-03-17T11:08:50.791Z,40.67
2023-03-17T11:11:34.707Z,40.53
2023-03-17T11:14:04.015Z,40.46
2023-03-17T11:16:35.005Z,40.40
2023-03-17T11:19:03.565Z,40.34
2023-03-17T11:21:34.762Z,40.22
2023-03-17T11:24:10.797Z,40.35
2023-03-17T11:26:52.913Z,40.12
2023-03-17T11:30:02.237Z,40.23
2023-03-17T11:32:37.024Z,40.18
2023-03-17T11:35:12.760Z,40.26
2023-03-17T11:37:58.995Z,40.02
2023-03-17T11:40:39.197Z,39.90
2023-03-17T11:43:23.984Z,39.83
2023-03-17T11:46:21.837Z,39.52
2023-03-17T11:48:55.597Z,38.90
2023-03-17T11:51:45.313Z,38.52
2023-03-17T11:54:26.013Z,38.97
2023-03-17T11:56:57.014Z,38.10
2023-03-17T11:59:30.592Z,38.58
2023-03-17T12:02:31.520Z,38.42
2023-03-17T12:05:09.871Z,38.77
2023-03-17T12:07:44.872Z,38.66
2023-03-17T12:10:31.226Z,37.03
2023-03-17T12:13:11.200Z,37.42
2023-03-17T12:15:43.640Z,38.06
2023-03-17T12:18:13.351Z,37.04
2023-03-17T12:20:48.920Z,37.37
2023-03-17T12:23:30.191Z,37.73
2023-03-17T12:26:05.205Z,36.63
2023-03-17T12:28:52.314Z,37.03
2023-03-17T12:31:28.198Z,37.56
2023-03-17T12:34:03.244Z,35.58
2023-03-17T12:36:30.112Z,37.09
2023-03-17T12:38:57.204Z,36.69
2023-03-17T12:41:31.615Z,37.42
2023-03-17T12:44:30.933Z,36.69
2023-03-17T12:47:31.597Z,35.29
2023-03-17T12:50:32.214Z,35.54
2023-03-17T12:53:10.400Z,35.65
2023-03-17T12:55:38.227Z,34.70
2023-03-17T12:58:16.394Z,33.77
2023-03-17T13:01:20.233Z,35.29
2023-03-17T13:04:06.097Z,36.26
2023-03-17T13:06:53.568Z,35.70
2023-03-17T13:09:31.496Z,36.34
2023-03-17T13:12:01.265Z,36.50
2023-03-17T13:14:46.378Z,36.22
2023-03-17T13:17:19.826Z,36.88
2023-03-17T13:20:14.590Z,36.48
2023-03-17T13:23:03.476Z,35.90
2023-03-17T13:25:36.438Z,35.54
2023-03-17T13:28:12.544Z,36.37
2023-03-17T13:30:39.445Z,36.81
2023-03-17T13:33:12.309Z,36.80
2023-03-17T13:35:45.376Z,36.87
2023-03-17T13:38:26.704Z,36.53
2023-03-17T13:41:13.718Z,36.83
2023-03-17T13:43:43.678Z,36.78
2023-03-17T13:46:31.778Z,36.33
2023-03-17T13:49:04.214Z,35.38
2023-03-17T13:51:34.074Z,36.30
2023-03-17T13:54:20.637Z,36.60
2023-03-17T13:56:52.952Z,36.59
2023-03-17T13:59:39.933Z,36.54
2023-03-17T14:02:18.465Z,35.18
2023-03-17T14:05:14.000Z,33.22
2023-03-17T14:07:54.687Z,35.23
2023-03-17T14:10:25.422Z,35.46
2023-03-17T14:13:03.239Z,35.41
2023-03-17T14:15:42.134Z,35.44
2023-03-17T14:18:16.514Z,35.89
2023-03-17T14:21:10.520Z,35.98
2023-03-17T14:23:38.356Z,36.22
2023-03-17T14:26:07.211Z,35.20
2023-03-17T14:28:35.585Z,35.39
2023-03-17T14:31:08.422Z,35.89
2023-03-17T14:33:40.843Z,36.15
2023-03-17T14:36:14.024Z,36.34
2023-03-17T14:38:51.892Z,36.22
2023-03-17T14:41:20.474Z,35.77
2023-03-17T14:43:47.564Z,35.97
2023-03-17T14:46:46.870Z,36.36
2023-03-17T14:49:19.695Z,36.08
2023-03-17T14:51:49.819Z,35.96
2023-03-17T14:54:22.548Z,36.37
2023-03-17T14:56:57.880Z,36.17
2023-03-17T14:59:30.961Z,36.49
2023-03-17T15:02:02.019Z,36.27
2023-03-17T15:04:31.830Z,36.32
2023-03-17T15:07:01.288Z,36.58
2023-03-17T15:09:33.931Z,36.49
2023-03-17T15:12:12.902Z,36.04
2023-03-17T15:14:41.116Z,35.92
2023-03-17T15:17:18.867Z,35.64
2023-03-17T15:19:55.062Z,35.79
2023-03-17T15:22:30.560Z,35.83
2023-03-17T15:25:21.010Z,35.36
2023-03-17T15:27:48.339Z,35.47
2023-03-17T15:30:16.634Z,35.59
2023-03-17T15:32:43.699Z,35.91
2023-03-17T15:35:14.321Z,35.54
2023-03-17T15:37:43.215Z,35.14
2023-03-17T15:40:10.625Z,35.45
2023-03-17T15:42:39.698Z,35.89
2023-03-17T15:45:07.185Z,36.04
2023-03-17T15:47:41.802Z,36.09
2023-03-17T15:50:18.596Z,36.11
2023-03-17T15:52:46.196Z,36.41
2023-03-17T15:55:31.434Z,36.48
2023-03-17T15:57:58.916Z,36.32
2023-03-17T16:00:29.889Z,36.42
2023-03-17T16:03:00.145Z,36.04
2023-03-17T16:05:31.267Z,36.04
2023-03-17T16:07:58.205Z,35.83
2023-03-17T16:10:27.741Z,36.38
2023-03-17T16:12:55.186Z,36.80
2023-03-17T16:15:27.973Z,36.31
2023-03-17T16:17:58.456Z,36.57
2023-03-17T16:20:31.460Z,36.19
2023-03-17T16:23:05.020Z,36.08
2023-03-17T16:25:32.601Z,36.12
2023-03-17T16:28:01.802Z,35.94
2023-03-17T16:30:34.660Z,36.10
2023-03-17T16:33:09.453Z,36.05
2023-03-17T16:35:36.265Z,36.26
2023-03-17T16:38:03.108Z,36.29
2023-03-17T16:40:38.281Z,36.39
2023-03-17T16:43:15.706Z,36.42
2023-03-17T16:45:46.367Z,36.53
2023-03-17T16:48:17.288Z,36.58
2023-03-17T16:50:44.784Z,36.65
2023-03-17T16:53:12.059Z,36.85
2023-03-17T16:55:40.378Z,36.85
2023-03-17T16:58:23.654Z,37.05
2023-03-17T17:00:53.954Z,37.01
2023-03-17T17:03:22.451Z,37.17
2023-03-17T17:05:49.269Z,37.21
2023-03-17T17:08:16.310Z,37.32
2023-03-17T17:10:43.344Z,37.45
2023-03-17T17:13:12.709Z,37.56
2023-03-17T17:15:41.357Z,37.66
2023-03-17T17:18:20.647Z,37.64
2023-03-17T17:20:48.942Z,37.83
2023-03-17T17:23:22.574Z,37.76
2023-03-17T17:25:50.595Z,37.99
2023-03-17T17:28:20.452Z,38.00
2023-03-17T17:30:48.184Z,38.08
2023-03-17T17:33:16.773Z,38.24
2023-03-17T17:35:47.936Z,38.36
2023-03-17T17:38:28.352Z,38.59
2023-03-17T17:40:58.213Z,38.77
2023-03-17T17:43:28.260Z,38.72
2023-03-17T17:45:57.887Z,38.79
2023-03-17T17:48:27.351Z,38.93
2023-03-17T17:50:57.106Z,38.91
2023-03-17T17:53:25.228Z,39.05
2023-03-17T17:55:53.962Z,39.22
2023-03-17T17:58:24.645Z,39.37
2023-03-17T18:00:55.876Z,39.30
2023-03-17T18:03:25.568Z,39.51
2023-03-17T18:05:57.572Z,39.57
2023-03-17T18:08:26.367Z,39.70
2023-03-17T18:10:55.985Z,39.79
2023-03-17T18:13:24.086Z,39.82
2023-03-17T18:15:54.456Z,39.99
2023-03-17T18:18:23.361Z,40.04
2023-03-17T18:20:51.417Z,40.11
2023-03-17T18:23:20.257Z,40.13
2023-03-17T18:25:47.853Z,40.16
2023-03-17T18:28:15.500Z,40.29
2023-03-17T18:30:45.226Z,40.39
2023-03-17T18:33:20.388Z,40.48
2023-03-17T18:35:50.259Z,40.31
2023-03-17T18:38:17.925Z,40.48
2023-03-17T18:40:47.132Z,40.57
2023-03-17T18:43:16.919Z,40.67
2023-03-17T18:45:45.132Z,40.92
2023-03-17T18:48:12.782Z,40.96
2023-03-17T18:50:40.659Z,41.12
2023-03-17T18:53:08.564Z,41.21
2023-03-17T18:55:36.266Z,41.28
2023-03-17T18:58:03.637Z,41.40
2023-03-17T19:00:32.192Z,41.46
2023-03-17T19:03:01.592Z,41.76
2023-03-17T19:05:29.165Z,41.83
2023-03-17T19:07:56.563Z,41.82
2023-03-17T19:10:24.229Z,42.18
2023-03-17T19:12:52.796Z,42.17
2023-03-17T19:15:21.228Z,42.31
2023-03-17T19:17:50.826Z,42.45
2023-03-17T19:20:20.297Z,42.68
2023-03-17T19:22:47.651Z,42.60
2023-03-17T19:25:17.132Z,42.59
2023-03-17T19:27:45.085Z,42.83
2023-03-17T19:30:14.211Z,42.90
2023-03-17T19:32:42.128Z,43.10
2023-03-17T19:35:10.084Z,43.24
2023-03-17T19:37:38.745Z,43.34
2023-03-17T19:40:14.172Z,43.36
2023-03-17T19:42:42.253Z,43.47
2023-03-17T19:45:10.672Z,43.47
2023-03-17T19:47:39.379Z,43.53
2023-03-17T19:50:07.991Z,43.55
2023-03-17T19:52:36.077Z,43.63
2023-03-17T19:55:08.137Z,43.83
2023-03-17T19:57:36.694Z,43.89
2023-03-17T20:00:05.404Z,43.97
2023-03-17T20:02:34.564Z,43.86
2023-03-17T20:05:02.816Z,44.05
2023-03-17T20:07:31.062Z,44.08
2023-03-17T20:09:58.894Z,44.02
2023-03-17T20:12:30.041Z,44.16
2023-03-17T20:14:58.025Z,44.12
2023-03-17T20:17:25.521Z,44.33
2023-03-17T20:19:53.031Z,44.33
2023-03-17T20:22:21.868Z,44.28
2023-03-17T20:24:49.519Z,44.51
2023-03-17T20:27:20.296Z,44.31
2023-03-17T20:29:50.130Z,44.45
2023-03-17T20:32:18.792Z,44.49
2023-03-17T20:34:47.269Z,44.61
2023-03-17T20:37:15.166Z,44.67
2023-03-17T20:39:43.061Z,44.60
2023-03-17T20:42:15.080Z,44.80
2023-03-17T20:44:43.481Z,45.04
2023-03-17T20:47:11.825Z,45.10
2023-03-17T20:49:39.415Z,44.98
2023-03-17T20:52:07.232Z,45.12
2023-03-17T20:54:34.887Z,45.07
2023-03-17T20:57:03.563Z,45.11
2023-03-17T20:59:30.548Z,45.07
2023-03-17T21:01:59.209Z,45.13
2023-03-17T21:04:26.841Z,45.30
2023-03-17T21:06:56.574Z,45.08
2023-03-17T21:09:24.395Z,45.43
2023-03-17T21:11:52.541Z,45.53
2023-03-17T21:14:19.593Z,45.46
2023-03-17T21:16:47.507Z,45.62
2023-03-17T21:19:17.573Z,45.65
2023-03-17T21:21:44.774Z,45.70
2023-03-17T21:24:33.934Z,45.83
2023-03-17T21:27:03.775Z,46.01
2023-03-17T21:29:33.231Z,45.97
2023-03-17T21:32:02.178Z,45.80
2023-03-17T21:34:31.778Z,46.02
2023-03-17T21:36:59.574Z,45.92
2023-03-17T21:39:29.488Z,46.06
2023-03-17T21:41:57.704Z,46.23
2023-03-17T21:44:24.880Z,46.10
2023-03-17T21:46:52.569Z,45.95
2023-03-17T21:49:19.684Z,45.90
2023-03-17T21:51:47.283Z,46.30
2023-03-17T21:54:14.882Z,46.07
2023-03-17T21:56:42.776Z,46.17
2023-03-17T21:59:11.192Z,46.39
2023-03-17T22:01:39.745Z,46.27
2023-03-17T22:04:06.880Z,46.38
2023-03-17T22:06:33.999Z,46.46
2023-03-17T22:09:00.936Z,46.41
2023-03-17T22:11:27.777Z,46.44
2023-03-17T22:13:54.612Z,46.40
2023-03-17T22:16:21.681Z,46.42
2023-03-17T22:18:48.812Z,46.62
2023-03-17T22:21:15.587Z,46.54
2023-03-17T22:23:42.645Z,46.46
2023-03-17T22:26:12.514Z,46.58
2023-03-17T22:28:40.767Z,46.63
2023-03-17T22:31:23.966Z,46.60
2023-03-17T22:33:53.335Z,46.64
2023-03-17T22:36:21.767Z,46.58
2023-03-17T22:38:48.777Z,46.62
2023-03-17T22:41:22.687Z,46.70
2023-03-17T22:43:50.221Z,46.59
2023-03-17T22:46:18.180Z,46.71
2023-03-17T22:48:46.749Z,46.78
2023-03-17T22:51:17.005Z,46.75
2023-03-17T22:53:44.609Z,46.75
2023-03-17T22:56:13.087Z,46.92
2023-03-17T22:58:40.526Z,46.85
2023-03-17T23:01:08.334Z,47.06
2023-03-17T23:03:35.878Z,46.88
2023-03-17T23:06:03.927Z,46.82
2023-03-17T23:08:35.118Z,47.00
2023-03-17T23:11:05.768Z,46.96
2023-03-17T23:13:33.133Z,46.92
2023-03-17T23:15:59.983Z,46.93
2023-03-17T23:18:26.811Z,46.99
2023-03-17T23:20:53.614Z,47.01
2023-03-17T23:23:20.636Z,47.04
2023-03-17T23:25:47.558Z,47.11
2023-03-17T23:28:15.602Z,46.90
2023-03-17T23:30:44.009Z,47.04
2023-03-17T23:33:10.837Z,47.06
2023-03-17T23:35:38.170Z,46.98
2023-03-17T23:38:05.244Z,46.92
2023-03-17T23:40:32.631Z,47.01
2023-03-17T23:42:59.931Z,46.93
2023-03-17T23:45:26.782Z,47.06
2023-03-17T23:47:55.618Z,47.11
2023-03-17T23:50:23.240Z,47.11
2023-03-17T23:52:50.093Z,47.03
2023-03-17T23:55:18.065Z,47.20
2023-03-17T23:57:45.380Z,47.06
